Crystal Falls, MI

3:33 AM CDT on July 11, 2014 (GMT -0500)
Ford (KIMT) Elev 1181 ft | 45.82 °N, 88.11 °W | Change Station

Current weather conditions updated 39 minutes ago

Mostly Cloudy
Mostly Cloudy
57 °F
Feels Like 57 °F
N
7
Wind Variable Wind from SE

Today is forecast to be Cooler than yesterday.

Today
High -- | Low -- °F
--% Chance of Precip.
Yesterday
High -- | Low -- °F
Precip. -- in
5:13 AM 8:44 PM
Waxing Gibbous, 98% visible
Pressure 30.11 in
Visibility 10.0 miles
Clouds Few 4200 ft
Scattered Clouds 5000 ft
Mostly Cloudy 7500 ft
Dew Point 53 °F
Humidity 87%
Rainfall 0.00 in
Snow Depth Not available.
UV 0 out of 12
Pollen 3.50 out of 12
Air Quality Not available.
Flu Activity Sporadic
METAR KIMT 110754Z AUTO 14006KT 10SM FEW042 SCT050 BKN075 14/12 A3011 RMK AO2 SLP194 T01390117

More Conditions Fewer Conditions

Pressure 30.11 in
Visibility 10.0 miles
Clouds Few 4200 ft
Scattered Clouds 5000 ft
Mostly Cloudy 7500 ft
Dew Point 53 °F
Humidity 87%
Rainfall 0.00 in
Snow Depth Not available.
UV 0 out of 12
Pollen 3.50 out of 12
Air Quality Not available.
Flu Activity Sporadic
METAR KIMT 110754Z AUTO 14006KT 10SM FEW042 SCT050 BKN075 14/12 A3011 RMK AO2 SLP194 T01390117

More Conditions Fewer Conditions

10-Day Weather Forecast

Almanac

Astronomy

Jul. 11, 2014 Rise Set
Actual Time 5:13 AM CDT 8:44 PM CDT
Civil Twilight 4:35 AM CDT 9:21 PM CDT
Nautical Twilight 3:46 AM CDT 10:10 PM CDT
Astronomical Twilight 2:40 AM CDT 11:15 PM CDT
Moon 7:49 PM CDT 4:28 AM CDT
Length of Visible Light 16h 45m
Length of Day
15h 30m
Tomorrow will be 1m 31s shorter.
Waxing Gibbous, 98% of the Moon is Illuminated
Today
Waxing Gibbous
Jul 12
Full
Jul 18
Last Quarter
Jul 26
New
Aug 3
First Quarter

Today's Extremes

State Highs State Lows

Community

WunderPhotos

Upload Photos

1,732,402 photos uploaded!

WunderBlogs® & News

Nearby

Snow Depth

Station Depth Elevation
No new snow has been reported.

Earthquake Activity

City Distance Mag. Time & Date
No recent earthquake activity has been reported nearby.
Minimum magnitude displayed is 2.5.

Coastal Water Temperatures

Place Temperature
No Stations Reporting

Nearby Weather Stations

Station Location Temp. Dew Point Humidity Wind Precip. Elev Updated Type
RAWS RANDVILLE MI, Sagola, MI 56 °F 53 °F 89% ESE  at  1 mph 0.00 in / hr 1254 ft 2:13 AM CDT MADIS
Spread Eagle Skies, Florence, WI 57.7 °F 56 °F 93% ESE  at  0.0 mph 0.00 in / hr 1224 ft 3:33 AM CDT Rapid Fire

Show More Stations Show Fewer Stations